createdAt,value
2019-03-11T00:00:08.934Z,91.30
2019-03-11T00:02:38.262Z,90.60
2019-03-11T00:05:08.794Z,90.72
2019-03-11T00:07:38.005Z,90.82
2019-03-11T00:10:07.231Z,90.98
2019-03-11T00:12:36.481Z,91.35
2019-03-11T00:15:05.788Z,90.45
2019-03-11T00:17:35.062Z,90.91
2019-03-11T00:20:04.348Z,90.60
2019-03-11T00:22:33.610Z,90.31
2019-03-11T00:25:02.814Z,90.47
2019-03-11T00:27:32.054Z,90.24
2019-03-11T00:30:01.275Z,89.58
2019-03-11T00:32:30.558Z,89.86
2019-03-11T00:34:59.843Z,89.93
2019-03-11T00:37:29.131Z,89.23
2019-03-11T00:39:58.384Z,89.59
2019-03-11T00:42:27.640Z,90.06
2019-03-11T00:44:56.870Z,90.03
2019-03-11T00:47:26.156Z,89.63
2019-03-11T00:49:55.496Z,89.47
2019-03-11T00:52:24.757Z,89.39
2019-03-11T00:54:53.977Z,89.36
2019-03-11T00:57:23.192Z,88.98
2019-03-11T00:59:52.436Z,89.14
2019-03-11T01:02:21.739Z,88.59
2019-03-11T01:04:51.300Z,89.50
2019-03-11T01:07:20.543Z,89.27
2019-03-11T01:09:49.822Z,88.74
2019-03-11T01:12:19.079Z,89.02
2019-03-11T01:14:48.320Z,88.51
2019-03-11T01:17:17.525Z,88.10
2019-03-11T01:19:46.764Z,88.71
2019-03-11T01:22:15.994Z,88.69
2019-03-11T01:24:45.267Z,88.64
2019-03-11T01:27:14.448Z,88.69
2019-03-11T01:29:43.682Z,87.65
2019-03-11T01:32:12.910Z,87.74
2019-03-11T01:34:42.117Z,88.07
2019-03-11T01:37:11.367Z,87.57
2019-03-11T01:39:40.596Z,87.86
2019-03-11T01:42:09.937Z,87.51
2019-03-11T01:44:39.092Z,86.64
2019-03-11T01:47:08.302Z,87.23
2019-03-11T01:49:37.541Z,87.53
2019-03-11T01:52:06.745Z,87.19
2019-03-11T01:54:35.961Z,87.19
2019-03-11T01:57:05.181Z,86.62
2019-03-11T01:59:34.438Z,86.29
2019-03-11T02:02:03.656Z,86.04
2019-03-11T02:04:32.900Z,86.82
2019-03-11T02:07:02.165Z,86.72
2019-03-11T02:09:31.398Z,87.86
2019-03-11T02:12:00.674Z,86.42
2019-03-11T02:14:29.902Z,86.50
2019-03-11T02:16:59.103Z,87.31
2019-03-11T02:19:28.388Z,87.65
2019-03-11T02:21:57.641Z,87.61
2019-03-11T02:24:26.935Z,87.88
2019-03-11T02:26:56.170Z,87.17
2019-03-11T02:29:25.446Z,87.46
2019-03-11T02:31:54.632Z,87.88
2019-03-11T02:34:24.298Z,88.26
2019-03-11T02:36:53.922Z,88.06
2019-03-11T02:39:23.208Z,88.12
2019-03-11T02:41:52.445Z,88.33
2019-03-11T02:44:21.692Z,88.21
2019-03-11T02:46:51.044Z,87.96
2019-03-11T02:49:20.232Z,88.52
2019-03-11T02:51:49.487Z,88.94
2019-03-11T02:54:18.757Z,88.59
2019-03-11T02:56:48.057Z,88.38
2019-03-11T02:59:17.239Z,89.10
2019-03-11T03:02:02.944Z,88.80
2019-03-11T03:04:36.546Z,88.25
2019-03-11T03:07:05.786Z,88.35
2019-03-11T03:09:35.093Z,86.88
2019-03-11T03:12:04.305Z,87.28
2019-03-11T03:14:33.540Z,87.43
2019-03-11T03:17:02.792Z,86.67
2019-03-11T03:19:31.995Z,86.77
2019-03-11T03:22:01.239Z,86.63
2019-03-11T03:24:30.457Z,86.70
2019-03-11T03:26:59.664Z,86.33
2019-03-11T03:29:28.886Z,86.64
2019-03-11T03:31:58.104Z,86.62
2019-03-11T03:34:27.378Z,85.83
2019-03-11T03:36:56.658Z,86.13
2019-03-11T03:39:26.116Z,85.70
2019-03-11T03:41:55.322Z,85.57
2019-03-11T03:44:24.622Z,84.45
2019-03-11T03:46:53.872Z,83.55
2019-03-11T03:49:23.092Z,84.92
2019-03-11T03:51:52.368Z,85.03
2019-03-11T03:54:21.568Z,84.91
2019-03-11T03:56:53.861Z,85.57
2019-03-11T03:59:20.008Z,85.75
2019-03-11T04:01:49.236Z,85.82
2019-03-11T04:04:18.481Z,86.13
2019-03-11T04:06:47.723Z,86.71
2019-03-11T04:09:16.961Z,86.80
2019-03-11T04:11:46.308Z,87.38
2019-03-11T04:14:15.529Z,87.29
2019-03-11T04:16:44.741Z,87.53
2019-03-11T04:19:13.963Z,87.91
2019-03-11T04:21:43.195Z,88.20
2019-03-11T04:24:12.433Z,88.38
2019-03-11T04:26:41.646Z,88.28
2019-03-11T04:29:10.885Z,88.29
2019-03-11T04:31:40.082Z,88.33
2019-03-11T04:34:09.380Z,88.12
2019-03-11T04:36:38.574Z,87.84
2019-03-11T04:39:07.898Z,87.93
2019-03-11T04:41:37.078Z,87.86
2019-03-11T04:44:07.003Z,87.87
2019-03-11T04:46:35.768Z,87.89
2019-03-11T04:49:04.986Z,87.55
2019-03-11T04:51:34.187Z,87.22
2019-03-11T04:54:03.448Z,86.94
2019-03-11T04:56:32.658Z,87.02
2019-03-11T04:59:12.497Z,86.70
2019-03-11T05:01:41.807Z,86.34
2019-03-11T05:04:11.474Z,86.59
2019-03-11T05:06:40.688Z,86.80
2019-03-11T05:09:09.921Z,86.87
2019-03-11T05:11:39.216Z,86.66
2019-03-11T05:14:08.533Z,86.46
2019-03-11T05:16:37.936Z,86.54
2019-03-11T05:19:07.181Z,86.88
2019-03-11T05:21:36.387Z,87.10
2019-03-11T05:24:05.589Z,86.83
2019-03-11T05:26:34.773Z,87.10
2019-03-11T05:29:03.999Z,87.00
2019-03-11T05:31:33.185Z,87.19
2019-03-11T05:34:02.429Z,87.09
2019-03-11T05:36:31.647Z,87.04
2019-03-11T05:39:01.819Z,86.55
2019-03-11T05:41:31.032Z,86.73
2019-03-11T05:44:00.358Z,86.24
2019-03-11T05:46:29.555Z,85.78
2019-03-11T05:48:58.899Z,85.52
2019-03-11T05:51:31.948Z,85.92
2019-03-11T05:53:57.383Z,85.79
2019-03-11T05:56:27.058Z,85.42
2019-03-11T05:58:56.468Z,85.80
2019-03-11T06:01:25.718Z,85.50
2019-03-11T06:03:54.905Z,85.48
2019-03-11T06:06:24.293Z,85.37
2019-03-11T06:08:53.461Z,84.94
2019-03-11T06:11:22.746Z,85.07
2019-03-11T06:13:51.944Z,84.43
2019-03-11T06:16:21.154Z,84.37
2019-03-11T06:18:52.560Z,84.33
2019-03-11T06:21:26.666Z,85.23
2019-03-11T06:23:55.956Z,83.71
2019-03-11T06:26:25.220Z,84.95
2019-03-11T06:28:54.403Z,82.81
2019-03-11T06:31:23.621Z,81.96
2019-03-11T06:33:52.855Z,81.04
2019-03-11T06:36:22.160Z,80.21
2019-03-11T06:38:51.354Z,79.87
2019-03-11T06:41:20.596Z,80.11
2019-03-11T06:43:49.861Z,80.08
2019-03-11T06:46:19.129Z,79.83
2019-03-11T06:48:48.325Z,79.25
2019-03-11T06:51:17.545Z,79.31
2019-03-11T06:53:46.792Z,79.09
2019-03-11T06:56:16.384Z,78.60
2019-03-11T06:58:45.565Z,78.62
2019-03-11T07:01:14.937Z,77.76
2019-03-11T07:03:44.250Z,77.33
2019-03-11T07:06:13.428Z,77.58
2019-03-11T07:08:42.664Z,76.91
2019-03-11T07:11:11.880Z,76.40
2019-03-11T07:13:41.128Z,76.32
2019-03-11T07:16:10.347Z,75.87
2019-03-11T07:18:39.624Z,75.72
2019-03-11T07:21:08.955Z,76.69
2019-03-11T07:23:38.215Z,76.14
2019-03-11T07:26:07.514Z,76.49
2019-03-11T07:28:36.804Z,74.22
2019-03-11T07:31:06.012Z,73.79
2019-03-11T07:33:35.233Z,73.18
2019-03-11T07:36:04.518Z,73.29
2019-03-11T07:38:33.841Z,72.76
2019-03-11T07:41:03.199Z,72.64
2019-03-11T07:43:32.603Z,71.72
2019-03-11T07:46:01.832Z,70.94
2019-03-11T07:48:31.190Z,71.00
2019-03-11T07:51:00.414Z,70.93
2019-03-11T07:53:29.679Z,71.00
2019-03-11T07:55:58.866Z,70.52
2019-03-11T07:58:28.127Z,70.21
2019-03-11T08:00:57.394Z,70.49
2019-03-11T08:03:26.744Z,71.34
2019-03-11T08:05:56.013Z,71.59
2019-03-11T08:08:25.252Z,71.96
2019-03-11T08:10:54.438Z,71.77
2019-03-11T08:13:23.821Z,72.44
2019-03-11T08:15:53.046Z,72.27
2019-03-11T08:18:22.321Z,72.93
2019-03-11T08:20:51.761Z,73.43
2019-03-11T08:23:21.036Z,72.74
2019-03-11T08:25:50.255Z,73.14
2019-03-11T08:28:19.529Z,72.40
2019-03-11T08:30:48.790Z,72.53
2019-03-11T08:33:18.124Z,72.40
2019-03-11T08:35:47.367Z,72.65
2019-03-11T08:38:16.597Z,72.23
2019-03-11T08:40:45.892Z,72.65
2019-03-11T08:43:15.187Z,72.46
2019-03-11T08:45:44.430Z,71.92
2019-03-11T08:48:13.666Z,71.97
2019-03-11T08:50:42.869Z,72.59
2019-03-11T08:53:12.064Z,71.76
2019-03-11T08:55:41.366Z,71.81
2019-03-11T08:58:10.565Z,71.56
2019-03-11T09:00:39.792Z,71.98
2019-03-11T09:03:09.048Z,72.76
2019-03-11T09:05:38.304Z,72.86
2019-03-11T09:08:07.559Z,72.19
2019-03-11T09:10:36.821Z,71.75
2019-03-11T09:13:06.056Z,71.86
2019-03-11T09:15:35.378Z,71.65
2019-03-11T09:18:04.639Z,71.85
2019-03-11T09:20:33.893Z,71.85
2019-03-11T09:23:03.122Z,72.90
2019-03-11T09:25:32.522Z,73.17
2019-03-11T09:28:01.728Z,73.97
2019-03-11T09:30:30.942Z,74.10
2019-03-11T09:33:00.177Z,74.31
2019-03-11T09:35:29.400Z,74.79
2019-03-11T09:37:58.692Z,75.88
2019-03-11T09:40:27.962Z,76.46
2019-03-11T09:42:57.146Z,77.40
2019-03-11T09:45:26.418Z,78.20
2019-03-11T09:47:55.636Z,78.46
2019-03-11T09:50:24.871Z,78.42
2019-03-11T09:52:54.097Z,78.23
2019-03-11T09:55:23.382Z,78.13
2019-03-11T09:57:52.643Z,77.46
2019-03-11T10:00:22.250Z,77.06
2019-03-11T10:02:53.348Z,76.42
2019-03-11T10:05:20.723Z,76.74
2019-03-11T10:07:50.001Z,77.11
2019-03-11T10:10:19.183Z,77.28
2019-03-11T10:12:48.478Z,77.32
2019-03-11T10:15:18.328Z,77.21
2019-03-11T10:17:47.598Z,77.02
2019-03-11T10:20:16.923Z,75.83
2019-03-11T10:22:46.128Z,75.24
2019-03-11T10:25:15.656Z,74.13
2019-03-11T10:27:45.240Z,73.01
2019-03-11T10:30:15.460Z,73.48
2019-03-11T10:32:44.814Z,73.70
2019-03-11T10:35:30.825Z,74.79
2019-03-11T10:37:44.252Z,74.46
2019-03-11T10:40:15.532Z,74.50
2019-03-11T10:42:44.906Z,74.11
2019-03-11T10:45:14.500Z,74.47
2019-03-11T10:47:43.797Z,73.16
2019-03-11T10:50:13.026Z,73.57
2019-03-11T10:52:42.330Z,73.58
2019-03-11T10:55:12.358Z,73.51
2019-03-11T10:57:41.584Z,73.23
2019-03-11T11:00:14.648Z,73.37
2019-03-11T11:02:43.920Z,72.49
2019-03-11T11:05:13.131Z,72.61
2019-03-11T11:07:42.412Z,72.65
2019-03-11T11:10:12.382Z,73.24
2019-03-11T11:12:41.600Z,73.74
2019-03-11T11:15:13.840Z,73.69
2019-03-11T11:17:43.099Z,73.86
2019-03-11T11:20:12.779Z,73.31
2019-03-11T11:22:42.030Z,73.72
2019-03-11T11:25:13.499Z,73.40
2019-03-11T11:27:42.775Z,73.87
2019-03-11T11:30:15.060Z,73.86
2019-03-11T11:32:44.386Z,73.74
2019-03-11T11:35:13.646Z,73.72
2019-03-11T11:37:43.024Z,73.73
2019-03-11T11:40:14.123Z,73.04
2019-03-11T11:42:43.308Z,73.07
2019-03-11T11:45:14.654Z,72.64
2019-03-11T11:47:43.929Z,69.99
2019-03-11T11:50:15.006Z,68.96
2019-03-11T11:52:44.225Z,68.12
2019-03-11T11:55:13.672Z,68.45
2019-03-11T11:57:42.961Z,65.76
2019-03-11T12:00:17.772Z,65.17
2019-03-11T12:02:47.008Z,65.58
2019-03-11T12:08:58.128Z,66.04
2019-03-11T12:11:27.386Z,67.14
2019-03-11T12:13:59.423Z,66.17
2019-03-11T12:16:28.614Z,66.66
2019-03-11T12:18:57.894Z,67.19
2019-03-11T12:21:27.108Z,67.92
2019-03-11T12:23:56.380Z,68.45
2019-03-11T12:26:25.605Z,69.38
2019-03-11T12:28:54.894Z,69.40
2019-03-11T12:31:24.232Z,69.10
2019-03-11T12:33:53.476Z,69.93
2019-03-11T12:36:22.717Z,70.70
2019-03-11T12:38:51.999Z,70.84
2019-03-11T12:41:21.286Z,71.01
2019-03-11T12:43:50.597Z,70.42
2019-03-11T12:46:19.865Z,70.51
2019-03-11T12:48:49.150Z,71.56
2019-03-11T12:51:18.418Z,72.20
2019-03-11T12:53:47.663Z,72.65
2019-03-11T12:56:16.917Z,72.60
2019-03-11T12:58:46.196Z,73.31
2019-03-11T13:01:15.522Z,73.83
2019-03-11T13:03:44.792Z,74.59
2019-03-11T13:06:14.098Z,74.90
2019-03-11T13:08:43.413Z,76.42
2019-03-11T13:11:12.715Z,77.47
2019-03-11T13:13:42.037Z,78.15
2019-03-11T13:16:11.351Z,78.98
2019-03-11T13:18:45.250Z,80.27
2019-03-11T13:21:23.986Z,81.43
2019-03-11T13:23:53.256Z,82.17
2019-03-11T13:26:22.591Z,82.57
2019-03-11T13:28:51.882Z,83.05
2019-03-11T13:31:21.202Z,83.37
2019-03-11T13:33:50.476Z,83.84
2019-03-11T13:36:20.118Z,84.08
2019-03-11T13:38:48.976Z,84.53
2019-03-11T13:41:18.258Z,84.89
2019-03-11T13:43:48.658Z,85.46
2019-03-11T13:46:16.820Z,85.86
2019-03-11T13:48:45.976Z,86.21
2019-03-11T13:51:15.294Z,86.20
2019-03-11T13:53:44.536Z,86.32
2019-03-11T13:56:13.883Z,86.46
2019-03-11T13:58:43.165Z,86.19
2019-03-11T14:01:12.414Z,86.38
2019-03-11T14:03:41.792Z,86.28
2019-03-11T14:06:11.054Z,85.91
2019-03-11T14:08:40.306Z,85.89
2019-03-11T14:11:09.556Z,86.27
2019-03-11T14:13:38.908Z,85.79
2019-03-11T14:16:08.182Z,85.79
2019-03-11T14:18:37.473Z,85.88
2019-03-11T14:21:06.802Z,85.63
2019-03-11T14:23:36.091Z,85.47
2019-03-11T14:26:05.420Z,85.79
2019-03-11T14:28:34.661Z,85.71
2019-03-11T14:31:03.992Z,86.02
2019-03-11T14:33:33.296Z,86.08
2019-03-11T14:36:02.571Z,86.09
2019-03-11T14:38:31.852Z,86.11
2019-03-11T14:41:01.197Z,86.44
2019-03-11T14:43:30.372Z,86.25
2019-03-11T14:45:59.607Z,86.27
2019-03-11T14:48:28.908Z,86.39
2019-03-11T14:50:58.161Z,86.05
2019-03-11T14:53:27.370Z,86.22
2019-03-11T14:55:56.629Z,86.57
2019-03-11T14:58:29.609Z,86.67
2019-03-11T15:00:55.168Z,86.94
2019-03-11T15:03:24.436Z,87.13
2019-03-11T15:05:54.681Z,87.63
2019-03-11T15:08:23.008Z,87.77
2019-03-11T15:10:52.243Z,88.14
2019-03-11T15:13:21.490Z,87.24
2019-03-11T15:15:50.729Z,87.87
2019-03-11T15:18:19.987Z,88.08
2019-03-11T15:20:49.194Z,87.82
2019-03-11T15:23:20.807Z,88.22
2019-03-11T15:25:47.744Z,88.30
2019-03-11T15:28:18.036Z,88.62
2019-03-11T15:30:46.353Z,88.87
2019-03-11T15:33:15.610Z,89.11
2019-03-11T15:35:44.839Z,89.21
2019-03-11T15:38:14.118Z,89.17
2019-03-11T15:40:43.402Z,89.40
2019-03-11T15:43:12.660Z,89.42
2019-03-11T15:45:42.006Z,89.53
2019-03-11T15:48:11.338Z,89.96
2019-03-11T15:50:40.565Z,89.47
2019-03-11T15:53:09.863Z,88.62
2019-03-11T15:55:39.133Z,89.72
2019-03-11T15:58:08.419Z,89.86
2019-03-11T16:00:37.759Z,89.53
2019-03-11T16:03:07.023Z,88.94
2019-03-11T16:05:36.288Z,88.68
2019-03-11T16:08:05.545Z,88.39
2019-03-11T16:10:35.095Z,89.23
2019-03-11T16:13:04.369Z,88.67
2019-03-11T16:15:33.704Z,88.93
2019-03-11T16:18:03.082Z,88.36
2019-03-11T16:20:32.337Z,89.01
2019-03-11T16:23:01.582Z,88.93
2019-03-11T16:25:30.902Z,89.58
2019-03-11T16:28:00.282Z,89.77
2019-03-11T16:30:29.540Z,89.18
2019-03-11T16:33:00.577Z,89.11
2019-03-11T16:35:28.109Z,88.70
2019-03-11T16:37:57.458Z,88.50
2019-03-11T16:40:26.708Z,89.59
2019-03-11T16:42:55.971Z,89.30
2019-03-11T16:45:25.323Z,89.77
2019-03-11T16:47:54.643Z,89.52
2019-03-11T16:50:23.908Z,89.71
2019-03-11T16:52:53.248Z,90.48
2019-03-11T16:55:23.593Z,91.01
2019-03-11T16:57:53.816Z,90.75
2019-03-11T17:00:24.152Z,91.13
2019-03-11T17:02:53.508Z,91.09
2019-03-11T17:05:22.838Z,91.08
2019-03-11T17:07:52.075Z,91.55
2019-03-11T17:10:21.462Z,91.68
2019-03-11T17:12:50.741Z,91.75
2019-03-11T17:15:20.008Z,91.63
2019-03-11T17:17:49.251Z,91.59
2019-03-11T17:20:18.532Z,91.35
2019-03-11T17:22:51.214Z,91.58
2019-03-11T17:25:20.466Z,91.74
2019-03-11T17:27:49.744Z,91.75
2019-03-11T17:30:19.150Z,91.85
2019-03-11T17:32:48.387Z,91.85
2019-03-11T17:35:17.709Z,91.75
2019-03-11T17:37:47.046Z,92.04
2019-03-11T17:40:16.737Z,91.76
2019-03-11T17:42:46.074Z,91.79
2019-03-11T17:45:15.392Z,91.72
2019-03-11T17:47:44.724Z,92.00
2019-03-11T17:50:14.500Z,92.10
2019-03-11T17:52:43.798Z,92.01
2019-03-11T17:55:13.062Z,91.95
2019-03-11T17:57:42.350Z,91.66
2019-03-11T18:00:16.540Z,91.66
2019-03-11T18:02:45.877Z,91.70
2019-03-11T18:05:15.375Z,91.51
2019-03-11T18:07:44.775Z,91.21
2019-03-11T18:10:14.067Z,91.10
2019-03-11T18:12:43.351Z,90.48
2019-03-11T18:15:12.961Z,90.71
2019-03-11T18:17:41.956Z,90.58
2019-03-11T18:20:11.912Z,90.65
2019-03-11T18:22:41.184Z,90.28
2019-03-11T18:25:11.821Z,90.16
2019-03-11T18:27:43.453Z,90.17
2019-03-11T18:30:15.168Z,90.11
2019-03-11T18:32:44.383Z,90.56
2019-03-11T18:35:13.694Z,90.58
2019-03-11T18:37:42.933Z,90.55
2019-03-11T18:40:12.510Z,90.12
2019-03-11T18:42:41.779Z,90.81
2019-03-11T18:45:11.014Z,91.01
2019-03-11T18:47:40.387Z,91.01
2019-03-11T18:50:10.880Z,91.29
2019-03-11T18:52:40.177Z,91.14
2019-03-11T18:55:09.645Z,91.32
2019-03-11T18:57:38.958Z,91.20
2019-03-11T19:00:09.566Z,91.37
2019-03-11T19:02:38.953Z,91.22
2019-03-11T19:05:09.167Z,91.39
2019-03-11T19:07:38.608Z,91.26
2019-03-11T19:10:08.705Z,90.81
2019-03-11T19:12:37.992Z,90.89
2019-03-11T19:15:08.434Z,89.99
2019-03-11T19:17:37.834Z,90.01
2019-03-11T19:20:09.107Z,90.20
2019-03-11T19:22:38.408Z,89.92
2019-03-11T19:25:07.703Z,89.54
2019-03-11T19:27:37.075Z,89.88
2019-03-11T19:30:09.048Z,89.33
2019-03-11T19:32:38.255Z,89.32
2019-03-11T19:35:07.574Z,88.88
2019-03-11T19:37:36.873Z,88.51
2019-03-11T19:40:06.128Z,88.90
2019-03-11T19:42:35.458Z,89.03
2019-03-11T19:45:04.863Z,89.17
2019-03-11T19:47:34.184Z,88.47
2019-03-11T19:50:03.499Z,88.84
2019-03-11T19:52:32.738Z,88.82
2019-03-11T19:55:02.120Z,88.94
2019-03-11T19:57:31.487Z,90.11
2019-03-11T20:00:00.765Z,89.38
2019-03-11T20:02:30.052Z,88.88
2019-03-11T20:04:59.306Z,89.32
2019-03-11T20:07:30.412Z,89.29
2019-03-11T20:09:57.924Z,89.04
2019-03-11T20:12:27.193Z,88.90
2019-03-11T20:14:56.460Z,88.80
2019-03-11T20:17:25.728Z,88.83
2019-03-11T20:19:55.041Z,88.87
2019-03-11T20:22:24.311Z,88.55
2019-03-11T20:24:53.664Z,88.33
2019-03-11T20:27:22.941Z,88.10
2019-03-11T20:29:52.420Z,88.10
2019-03-11T20:32:21.711Z,87.53
2019-03-11T20:34:51.033Z,88.21
2019-03-11T20:37:20.251Z,87.68
2019-03-11T20:39:49.634Z,87.30
2019-03-11T20:42:18.945Z,87.82
2019-03-11T20:44:48.182Z,88.11
2019-03-11T20:47:17.506Z,88.01
2019-03-11T20:49:46.701Z,87.89
2019-03-11T20:52:15.948Z,87.88
2019-03-11T20:54:45.241Z,87.31
2019-03-11T20:57:14.521Z,87.27
2019-03-11T20:59:43.711Z,87.25
2019-03-11T21:02:13.097Z,87.15
2019-03-11T21:04:42.443Z,87.46
2019-03-11T21:07:11.794Z,87.58
2019-03-11T21:09:41.194Z,87.43
2019-03-11T21:12:10.456Z,87.79
2019-03-11T21:14:39.740Z,87.37
2019-03-11T21:17:08.933Z,87.30
2019-03-11T21:19:38.386Z,87.15
2019-03-11T21:22:07.695Z,87.07
2019-03-11T21:24:38.094Z,87.19
2019-03-11T21:27:06.255Z,87.57
2019-03-11T21:29:38.562Z,87.46
2019-03-11T21:32:04.805Z,87.31
2019-03-11T21:34:34.128Z,87.52
2019-03-11T21:37:03.399Z,87.59
2019-03-11T21:39:32.644Z,87.21
2019-03-11T21:42:01.989Z,87.48
2019-03-11T21:44:31.240Z,87.63
2019-03-11T21:47:00.502Z,87.28
2019-03-11T21:49:29.846Z,87.48
2019-03-11T21:51:59.101Z,87.25
2019-03-11T21:54:28.392Z,87.36
2019-03-11T21:56:57.611Z,87.47
2019-03-11T21:59:26.979Z,87.10
2019-03-11T22:01:56.077Z,86.80
2019-03-11T22:04:25.387Z,87.03
2019-03-11T22:06:54.635Z,86.93
2019-03-11T22:09:23.933Z,86.52
2019-03-11T22:11:53.175Z,86.44
2019-03-11T22:14:22.459Z,86.42
2019-03-11T22:16:51.695Z,86.66
2019-03-11T22:19:20.964Z,86.75
2019-03-11T22:21:50.229Z,86.62
2019-03-11T22:24:19.482Z,86.43
2019-03-11T22:26:48.925Z,86.43
2019-03-11T22:29:18.147Z,86.43
2019-03-11T22:31:47.369Z,86.58
2019-03-11T22:34:16.630Z,86.49
2019-03-11T22:36:45.862Z,86.37
2019-03-11T22:39:15.124Z,86.00
2019-03-11T22:41:44.381Z,86.11
2019-03-11T22:44:13.733Z,86.13
2019-03-11T22:46:42.986Z,86.15
2019-03-11T22:49:12.517Z,85.94
2019-03-11T22:51:41.764Z,86.09
2019-03-11T22:54:11.007Z,86.02
2019-03-11T22:56:40.291Z,85.73
2019-03-11T22:59:09.629Z,85.78
2019-03-11T23:01:39.133Z,85.72
2019-03-11T23:04:08.357Z,85.98
2019-03-11T23:06:37.641Z,86.11
2019-03-11T23:09:10.183Z,86.42
2019-03-11T23:11:36.187Z,86.49
2019-03-11T23:14:05.444Z,86.55
2019-03-11T23:16:34.789Z,86.76
2019-03-11T23:19:03.957Z,86.78
2019-03-11T23:21:33.197Z,86.82
2019-03-11T23:24:02.450Z,86.93
2019-03-11T23:26:31.735Z,87.00
2019-03-11T23:29:00.988Z,87.01
2019-03-11T23:31:30.256Z,86.95
2019-03-11T23:33:59.527Z,86.91
2019-03-11T23:36:28.861Z,86.98
2019-03-11T23:38:58.167Z,86.90
2019-03-11T23:41:29.064Z,86.97
2019-03-11T23:43:56.699Z,87.01
2019-03-11T23:46:25.977Z,87.04
2019-03-11T23:48:55.233Z,87.00
2019-03-11T23:51:24.627Z,87.03
2019-03-11T23:53:53.849Z,87.00
2019-03-11T23:56:23.079Z,86.92
2019-03-11T23:58:52.366Z,87.06
